sensor_id;sensor_type;location;lat;lon;timestamp;P1;durP1;ratioP1;P2;durP2;ratioP2
80313;SDS011;69628;47.516;18.828;2023-09-08T00:00:38;3.85;;;2.70;;
80313;SDS011;69628;47.516;18.828;2023-09-08T00:01:38;5.82;;;2.85;;
80313;SDS011;69628;47.516;18.828;2023-09-08T00:02:38;5.10;;;3.13;;
80313;SDS011;69628;47.516;18.828;2023-09-08T00:03:39;5.55;;;3.30;;
80313;SDS011;69628;47.516;18.828;2023-09-08T00:04:39;8.55;;;3.03;;
80313;SDS011;69628;47.516;18.828;2023-09-08T00:05:39;4.90;;;2.75;;
80313;SDS011;69628;47.516;18.828;2023-09-08T00:06:40;4.95;;;2.92;;
80313;SDS011;69628;47.516;18.828;2023-09-08T00:07:41;11.25;;;3.08;;
80313;SDS011;69628;47.516;18.828;2023-09-08T00:08:43;12.00;;;3.58;;
80313;SDS011;69628;47.516;18.828;2023-09-08T00:09:43;4.88;;;2.95;;
80313;SDS011;69628;47.516;18.828;2023-09-08T00:10:43;6.03;;;2.80;;
80313;SDS011;69628;47.516;18.828;2023-09-08T00:11:44;5.93;;;2.83;;
80313;SDS011;69628;47.516;18.828;2023-09-08T00:12:44;9.90;;;2.92;;
80313;SDS011;69628;47.516;18.828;2023-09-08T00:13:45;4.78;;;2.78;;
80313;SDS011;69628;47.516;18.828;2023-09-08T00:14:45;6.55;;;2.97;;
80313;SDS011;69628;47.516;18.828;2023-09-08T00:15:45;5.03;;;2.75;;
80313;SDS011;69628;47.516;18.828;2023-09-08T00:16:46;5.55;;;3.17;;
80313;SDS011;69628;47.516;18.828;2023-09-08T00:17:46;4.22;;;2.83;;
80313;SDS011;69628;47.516;18.828;2023-09-08T00:18:47;6.47;;;3.42;;
80313;SDS011;69628;47.516;18.828;2023-09-08T00:19:47;4.13;;;2.70;;
80313;SDS011;69628;47.516;18.828;2023-09-08T00:20:47;6.97;;;3.53;;
80313;SDS011;69628;47.516;18.828;2023-09-08T00:21:48;6.50;;;2.75;;
80313;SDS011;69628;47.516;18.828;2023-09-08T00:22:49;4.00;;;2.78;;
80313;SDS011;69628;47.516;18.828;2023-09-08T00:23:49;3.83;;;2.53;;
80313;SDS011;69628;47.516;18.828;2023-09-08T00:24:50;4.95;;;2.78;;
80313;SDS011;69628;47.516;18.828;2023-09-08T00:25:50;6.82;;;2.67;;
80313;SDS011;69628;47.516;18.828;2023-09-08T00:26:51;5.47;;;2.97;;
80313;SDS011;69628;47.516;18.828;2023-09-08T00:27:51;9.13;;;3.10;;
80313;SDS011;69628;47.516;18.828;2023-09-08T00:28:51;5.28;;;2.90;;
80313;SDS011;69628;47.516;18.828;2023-09-08T00:29:52;5.68;;;2.92;;
80313;SDS011;69628;47.516;18.828;2023-09-08T00:30:52;6.40;;;2.80;;
80313;SDS011;69628;47.516;18.828;2023-09-08T00:31:53;5.05;;;2.72;;
80313;SDS011;69628;47.516;18.828;2023-09-08T00:32:53;3.65;;;2.38;;
80313;SDS011;69628;47.516;18.828;2023-09-08T00:33:53;5.03;;;2.67;;
80313;SDS011;69628;47.516;18.828;2023-09-08T00:34:54;6.00;;;2.88;;
80313;SDS011;69628;47.516;18.828;2023-09-08T00:35:54;5.07;;;2.95;;
80313;SDS011;69628;47.516;18.828;2023-09-08T00:36:57;5.32;;;2.80;;
80313;SDS011;69628;47.516;18.828;2023-09-08T00:37:57;4.30;;;2.83;;
80313;SDS011;69628;47.516;18.828;2023-09-08T00:38:58;5.00;;;2.95;;
80313;SDS011;69628;47.516;18.828;2023-09-08T00:39:58;5.18;;;2.80;;
80313;SDS011;69628;47.516;18.828;2023-09-08T00:40:59;4.60;;;2.97;;
80313;SDS011;69628;47.516;18.828;2023-09-08T00:42:00;4.55;;;2.95;;
80313;SDS011;69628;47.516;18.828;2023-09-08T00:43:01;5.45;;;3.00;;
80313;SDS011;69628;47.516;18.828;2023-09-08T00:44:01;5.45;;;2.92;;
80313;SDS011;69628;47.516;18.828;2023-09-08T00:45:02;4.50;;;2.90;;
80313;SDS011;69628;47.516;18.828;2023-09-08T00:46:04;7.72;;;4.00;;
80313;SDS011;69628;47.516;18.828;2023-09-08T00:47:04;3.75;;;2.42;;
80313;SDS011;69628;47.516;18.828;2023-09-08T00:48:05;4.53;;;2.78;;
80313;SDS011;69628;47.516;18.828;2023-09-08T00:49:06;5.75;;;2.95;;
80313;SDS011;69628;47.516;18.828;2023-09-08T00:50:09;5.90;;;2.72;;
80313;SDS011;69628;47.516;18.828;2023-09-08T00:51:09;4.28;;;2.80;;
80313;SDS011;69628;47.516;18.828;2023-09-08T00:52:10;3.85;;;2.33;;
80313;SDS011;69628;47.516;18.828;2023-09-08T00:53:10;5.30;;;3.20;;
80313;SDS011;69628;47.516;18.828;2023-09-08T00:54:10;4.97;;;2.78;;
80313;SDS011;69628;47.516;18.828;2023-09-08T00:55:11;9.30;;;2.85;;
80313;SDS011;69628;47.516;18.828;2023-09-08T00:56:11;4.60;;;2.90;;
80313;SDS011;69628;47.516;18.828;2023-09-08T00:57:12;4.85;;;2.70;;
80313;SDS011;69628;47.516;18.828;2023-09-08T00:58:12;14.52;;;3.30;;
80313;SDS011;69628;47.516;18.828;2023-09-08T00:59:13;4.88;;;2.97;;
80313;SDS011;69628;47.516;18.828;2023-09-08T01:00:13;8.15;;;3.22;;
80313;SDS011;69628;47.516;18.828;2023-09-08T01:01:14;6.18;;;2.63;;
80313;SDS011;69628;47.516;18.828;2023-09-08T01:02:15;4.95;;;3.00;;
80313;SDS011;69628;47.516;18.828;2023-09-08T01:03:15;5.70;;;3.67;;
80313;SDS011;69628;47.516;18.828;2023-09-08T01:04:15;5.07;;;2.92;;
80313;SDS011;69628;47.516;18.828;2023-09-08T01:05:16;4.65;;;2.60;;
80313;SDS011;69628;47.516;18.828;2023-09-08T01:06:16;6.25;;;3.15;;
80313;SDS011;69628;47.516;18.828;2023-09-08T01:07:17;3.97;;;2.45;;
80313;SDS011;69628;47.516;18.828;2023-09-08T01:08:19;5.35;;;3.33;;
80313;SDS011;69628;47.516;18.828;2023-09-08T01:09:20;5.00;;;3.25;;
80313;SDS011;69628;47.516;18.828;2023-09-08T01:10:20;5.13;;;2.85;;
80313;SDS011;69628;47.516;18.828;2023-09-08T01:11:21;4.38;;;2.83;;
80313;SDS011;69628;47.516;18.828;2023-09-08T01:12:21;7.00;;;3.17;;
80313;SDS011;69628;47.516;18.828;2023-09-08T01:13:22;4.28;;;2.70;;
80313;SDS011;69628;47.516;18.828;2023-09-08T01:14:22;5.28;;;2.90;;
80313;SDS011;69628;47.516;18.828;2023-09-08T01:15:23;5.22;;;2.92;;
80313;SDS011;69628;47.516;18.828;2023-09-08T01:16:23;4.93;;;2.47;;
80313;SDS011;69628;47.516;18.828;2023-09-08T01:17:24;6.00;;;2.80;;
80313;SDS011;69628;47.516;18.828;2023-09-08T01:18:25;5.32;;;3.25;;
80313;SDS011;69628;47.516;18.828;2023-09-08T01:19:25;9.88;;;2.72;;
80313;SDS011;69628;47.516;18.828;2023-09-08T01:20:27;4.53;;;2.67;;
80313;SDS011;69628;47.516;18.828;2023-09-08T01:25:40;6.47;;;2.80;;
80313;SDS011;69628;47.516;18.828;2023-09-08T01:26:46;4.45;;;2.45;;
80313;SDS011;69628;47.516;18.828;2023-09-08T01:27:52;7.60;;;3.08;;
80313;SDS011;69628;47.516;18.828;2023-09-08T01:28:53;4.40;;;3.03;;
80313;SDS011;69628;47.516;18.828;2023-09-08T01:29:55;6.93;;;3.13;;
80313;SDS011;69628;47.516;18.828;2023-09-08T01:30:56;4.30;;;2.67;;
80313;SDS011;69628;47.516;18.828;2023-09-08T01:31:57;6.05;;;2.85;;
80313;SDS011;69628;47.516;18.828;2023-09-08T01:32:57;7.00;;;3.03;;
80313;SDS011;69628;47.516;18.828;2023-09-08T01:34:00;5.28;;;3.03;;
80313;SDS011;69628;47.516;18.828;2023-09-08T01:35:01;7.32;;;3.03;;
80313;SDS011;69628;47.516;18.828;2023-09-08T01:36:02;4.68;;;2.88;;
80313;SDS011;69628;47.516;18.828;2023-09-08T01:37:03;6.00;;;2.80;;
80313;SDS011;69628;47.516;18.828;2023-09-08T01:38:04;4.65;;;2.92;;
80313;SDS011;69628;47.516;18.828;2023-09-08T01:39:05;4.20;;;2.55;;
80313;SDS011;69628;47.516;18.828;2023-09-08T01:40:05;5.53;;;3.13;;
80313;SDS011;69628;47.516;18.828;2023-09-08T01:41:06;5.47;;;2.83;;
80313;SDS011;69628;47.516;18.828;2023-09-08T01:42:06;4.63;;;2.75;;
80313;SDS011;69628;47.516;18.828;2023-09-08T01:43:07;4.80;;;3.00;;
80313;SDS011;69628;47.516;18.828;2023-09-08T01:44:07;4.70;;;3.15;;
80313;SDS011;69628;47.516;18.828;2023-09-08T01:45:10;4.20;;;2.58;;
80313;SDS011;69628;47.516;18.828;2023-09-08T01:46:11;4.78;;;2.75;;
80313;SDS011;69628;47.516;18.828;2023-09-08T01:47:11;7.03;;;3.20;;
80313;SDS011;69628;47.516;18.828;2023-09-08T01:48:11;7.30;;;2.85;;
80313;SDS011;69628;47.516;18.828;2023-09-08T01:49:12;5.68;;;3.28;;
80313;SDS011;69628;47.516;18.828;2023-09-08T01:50:12;5.78;;;2.90;;
80313;SDS011;69628;47.516;18.828;2023-09-08T01:51:13;5.72;;;3.05;;
80313;SDS011;69628;47.516;18.828;2023-09-08T01:52:13;5.95;;;2.97;;
80313;SDS011;69628;47.516;18.828;2023-09-08T01:53:13;11.35;;;3.50;;
80313;SDS011;69628;47.516;18.828;2023-09-08T01:54:14;5.93;;;3.15;;
80313;SDS011;69628;47.516;18.828;2023-09-08T01:55:14;5.38;;;3.20;;
80313;SDS011;69628;47.516;18.828;2023-09-08T01:56:16;4.35;;;3.10;;
80313;SDS011;69628;47.516;18.828;2023-09-08T01:57:17;6.97;;;3.28;;
80313;SDS011;69628;47.516;18.828;2023-09-08T01:58:17;7.07;;;3.25;;
80313;SDS011;69628;47.516;18.828;2023-09-08T01:59:18;6.88;;;3.58;;
80313;SDS011;69628;47.516;18.828;2023-09-08T02:00:18;28.08;;;3.08;;
80313;SDS011;69628;47.516;18.828;2023-09-08T02:01:18;9.02;;;3.13;;
80313;SDS011;69628;47.516;18.828;2023-09-08T02:02:19;5.88;;;2.67;;
80313;SDS011;69628;47.516;18.828;2023-09-08T02:03:19;7.82;;;2.75;;
80313;SDS011;69628;47.516;18.828;2023-09-08T02:04:19;5.35;;;2.85;;
80313;SDS011;69628;47.516;18.828;2023-09-08T02:05:20;7.75;;;3.13;;
80313;SDS011;69628;47.516;18.828;2023-09-08T02:06:20;5.57;;;3.15;;
80313;SDS011;69628;47.516;18.828;2023-09-08T02:07:21;7.72;;;2.83;;
80313;SDS011;69628;47.516;18.828;2023-09-08T02:08:21;5.40;;;2.95;;
80313;SDS011;69628;47.516;18.828;2023-09-08T02:09:21;4.85;;;2.85;;
80313;SDS011;69628;47.516;18.828;2023-09-08T02:10:22;6.38;;;3.25;;
80313;SDS011;69628;47.516;18.828;2023-09-08T02:11:22;4.30;;;2.88;;
80313;SDS011;69628;47.516;18.828;2023-09-08T02:12:23;5.35;;;3.08;;
80313;SDS011;69628;47.516;18.828;2023-09-08T02:13:23;5.32;;;3.10;;
80313;SDS011;69628;47.516;18.828;2023-09-08T02:14:23;6.43;;;3.08;;
80313;SDS011;69628;47.516;18.828;2023-09-08T02:15:24;5.47;;;3.28;;
80313;SDS011;69628;47.516;18.828;2023-09-08T02:16:24;12.02;;;3.65;;
80313;SDS011;69628;47.516;18.828;2023-09-08T02:17:24;4.35;;;2.90;;
80313;SDS011;69628;47.516;18.828;2023-09-08T02:18:25;6.30;;;3.10;;
80313;SDS011;69628;47.516;18.828;2023-09-08T02:19:26;6.10;;;2.90;;
80313;SDS011;69628;47.516;18.828;2023-09-08T02:20:26;5.97;;;3.10;;
80313;SDS011;69628;47.516;18.828;2023-09-08T02:21:26;6.70;;;3.85;;
80313;SDS011;69628;47.516;18.828;2023-09-08T02:22:27;5.45;;;3.30;;
80313;SDS011;69628;47.516;18.828;2023-09-08T02:23:27;8.55;;;3.80;;
80313;SDS011;69628;47.516;18.828;2023-09-08T02:24:27;6.97;;;2.92;;
80313;SDS011;69628;47.516;18.828;2023-09-08T02:25:28;6.05;;;3.17;;
80313;SDS011;69628;47.516;18.828;2023-09-08T02:26:28;6.00;;;3.28;;
80313;SDS011;69628;47.516;18.828;2023-09-08T02:27:32;5.40;;;2.80;;
80313;SDS011;69628;47.516;18.828;2023-09-08T02:28:32;5.47;;;3.00;;
80313;SDS011;69628;47.516;18.828;2023-09-08T02:29:32;5.32;;;2.83;;
80313;SDS011;69628;47.516;18.828;2023-09-08T02:30:33;5.00;;;2.97;;
80313;SDS011;69628;47.516;18.828;2023-09-08T02:31:33;6.82;;;3.00;;
80313;SDS011;69628;47.516;18.828;2023-09-08T02:32:34;5.50;;;3.38;;
80313;SDS011;69628;47.516;18.828;2023-09-08T02:33:34;7.90;;;3.22;;
80313;SDS011;69628;47.516;18.828;2023-09-08T02:34:35;5.07;;;3.00;;
80313;SDS011;69628;47.516;18.828;2023-09-08T02:35:39;4.18;;;2.55;;
80313;SDS011;69628;47.516;18.828;2023-09-08T02:36:39;7.28;;;3.20;;
80313;SDS011;69628;47.516;18.828;2023-09-08T02:37:40;4.10;;;2.75;;
80313;SDS011;69628;47.516;18.828;2023-09-08T02:38:40;5.95;;;2.88;;
80313;SDS011;69628;47.516;18.828;2023-09-08T02:39:41;6.35;;;3.40;;
80313;SDS011;69628;47.516;18.828;2023-09-08T02:40:41;10.82;;;3.85;;
80313;SDS011;69628;47.516;18.828;2023-09-08T02:41:41;5.65;;;3.42;;
80313;SDS011;69628;47.516;18.828;2023-09-08T02:42:42;5.57;;;3.50;;
80313;SDS011;69628;47.516;18.828;2023-09-08T02:43:42;4.85;;;3.00;;
80313;SDS011;69628;47.516;18.828;2023-09-08T02:44:42;4.97;;;2.95;;
80313;SDS011;69628;47.516;18.828;2023-09-08T02:45:43;6.75;;;3.15;;
80313;SDS011;69628;47.516;18.828;2023-09-08T02:46:43;6.22;;;3.30;;
80313;SDS011;69628;47.516;18.828;2023-09-08T02:47:44;6.68;;;3.10;;
80313;SDS011;69628;47.516;18.828;2023-09-08T02:48:44;4.85;;;2.95;;
80313;SDS011;69628;47.516;18.828;2023-09-08T02:49:44;6.40;;;3.20;;
80313;SDS011;69628;47.516;18.828;2023-09-08T02:50:45;5.93;;;3.22;;
80313;SDS011;69628;47.516;18.828;2023-09-08T02:51:45;6.40;;;3.15;;
80313;SDS011;69628;47.516;18.828;2023-09-08T02:52:45;6.63;;;3.08;;
80313;SDS011;69628;47.516;18.828;2023-09-08T02:53:46;4.75;;;3.10;;
80313;SDS011;69628;47.516;18.828;2023-09-08T02:54:46;5.28;;;3.10;;
80313;SDS011;69628;47.516;18.828;2023-09-08T02:55:47;5.07;;;2.70;;
80313;SDS011;69628;47.516;18.828;2023-09-08T02:56:47;4.43;;;2.63;;
80313;SDS011;69628;47.516;18.828;2023-09-08T02:57:48;6.57;;;3.13;;
80313;SDS011;69628;47.516;18.828;2023-09-08T02:58:48;6.35;;;3.40;;
80313;SDS011;69628;47.516;18.828;2023-09-08T02:59:49;11.10;;;2.97;;
80313;SDS011;69628;47.516;18.828;2023-09-08T03:00:51;6.05;;;3.38;;
80313;SDS011;69628;47.516;18.828;2023-09-08T03:01:54;7.00;;;2.92;;
80313;SDS011;69628;47.516;18.828;2023-09-08T03:02:54;4.65;;;3.30;;
80313;SDS011;69628;47.516;18.828;2023-09-08T03:03:54;5.72;;;3.10;;
80313;SDS011;69628;47.516;18.828;2023-09-08T03:04:55;7.78;;;3.60;;
80313;SDS011;69628;47.516;18.828;2023-09-08T03:05:55;5.80;;;3.15;;
80313;SDS011;69628;47.516;18.828;2023-09-08T03:06:58;4.03;;;2.80;;
80313;SDS011;69628;47.516;18.828;2023-09-08T03:07:58;7.03;;;3.30;;
80313;SDS011;69628;47.516;18.828;2023-09-08T03:08:58;6.10;;;3.65;;
80313;SDS011;69628;47.516;18.828;2023-09-08T03:09:59;5.63;;;3.08;;
80313;SDS011;69628;47.516;18.828;2023-09-08T03:11:00;5.80;;;3.08;;
80313;SDS011;69628;47.516;18.828;2023-09-08T03:12:00;5.85;;;3.17;;
80313;SDS011;69628;47.516;18.828;2023-09-08T03:13:01;10.57;;;3.30;;
80313;SDS011;69628;47.516;18.828;2023-09-08T03:14:01;4.70;;;3.10;;
80313;SDS011;69628;47.516;18.828;2023-09-08T03:15:02;6.32;;;3.35;;
80313;SDS011;69628;47.516;18.828;2023-09-08T03:16:06;4.53;;;2.85;;
80313;SDS011;69628;47.516;18.828;2023-09-08T03:17:07;7.57;;;2.88;;
80313;SDS011;69628;47.516;18.828;2023-09-08T03:18:07;4.90;;;3.10;;
80313;SDS011;69628;47.516;18.828;2023-09-08T03:19:07;7.93;;;2.90;;
80313;SDS011;69628;47.516;18.828;2023-09-08T03:20:09;4.53;;;3.20;;
80313;SDS011;69628;47.516;18.828;2023-09-08T03:21:13;4.90;;;3.17;;
80313;SDS011;69628;47.516;18.828;2023-09-08T03:22:14;6.43;;;3.35;;
80313;SDS011;69628;47.516;18.828;2023-09-08T03:23:14;5.78;;;3.28;;
80313;SDS011;69628;47.516;18.828;2023-09-08T03:24:15;4.95;;;3.30;;
80313;SDS011;69628;47.516;18.828;2023-09-08T03:25:15;5.53;;;3.40;;
80313;SDS011;69628;47.516;18.828;2023-09-08T03:26:16;5.47;;;3.22;;
80313;SDS011;69628;47.516;18.828;2023-09-08T03:27:16;4.55;;;3.08;;
80313;SDS011;69628;47.516;18.828;2023-09-08T03:28:16;4.88;;;2.63;;
80313;SDS011;69628;47.516;18.828;2023-09-08T03:29:17;5.40;;;2.80;;
80313;SDS011;69628;47.516;18.828;2023-09-08T03:30:17;7.50;;;3.33;;
80313;SDS011;69628;47.516;18.828;2023-09-08T03:31:18;4.60;;;3.05;;
80313;SDS011;69628;47.516;18.828;2023-09-08T03:32:18;5.60;;;3.10;;
80313;SDS011;69628;47.516;18.828;2023-09-08T03:33:18;5.82;;;3.17;;
80313;SDS011;69628;47.516;18.828;2023-09-08T03:34:19;6.93;;;3.47;;
80313;SDS011;69628;47.516;18.828;2023-09-08T03:35:20;3.80;;;3.03;;
80313;SDS011;69628;47.516;18.828;2023-09-08T03:36:21;6.40;;;3.70;;
80313;SDS011;69628;47.516;18.828;2023-09-08T03:37:21;7.22;;;3.75;;
80313;SDS011;69628;47.516;18.828;2023-09-08T03:38:22;5.60;;;3.38;;
80313;SDS011;69628;47.516;18.828;2023-09-08T03:39:23;6.05;;;3.22;;
80313;SDS011;69628;47.516;18.828;2023-09-08T03:40:23;5.88;;;3.22;;
80313;SDS011;69628;47.516;18.828;2023-09-08T03:41:23;5.85;;;3.00;;
80313;SDS011;69628;47.516;18.828;2023-09-08T03:42:24;5.35;;;3.13;;
80313;SDS011;69628;47.516;18.828;2023-09-08T03:43:24;9.85;;;2.92;;
80313;SDS011;69628;47.516;18.828;2023-09-08T03:44:24;7.15;;;2.70;;
80313;SDS011;69628;47.516;18.828;2023-09-08T03:45:25;5.97;;;2.90;;
80313;SDS011;69628;47.516;18.828;2023-09-08T03:46:25;6.80;;;3.33;;
80313;SDS011;69628;47.516;18.828;2023-09-08T03:47:26;6.15;;;2.80;;
80313;SDS011;69628;47.516;18.828;2023-09-08T03:48:26;9.85;;;3.58;;
80313;SDS011;69628;47.516;18.828;2023-09-08T03:49:26;9.70;;;3.13;;
80313;SDS011;69628;47.516;18.828;2023-09-08T03:50:27;6.95;;;2.95;;
80313;SDS011;69628;47.516;18.828;2023-09-08T03:51:27;4.97;;;3.42;;
80313;SDS011;69628;47.516;18.828;2023-09-08T03:52:28;4.63;;;3.17;;
80313;SDS011;69628;47.516;18.828;2023-09-08T03:53:28;7.00;;;3.33;;
80313;SDS011;69628;47.516;18.828;2023-09-08T03:54:28;7.80;;;3.35;;
80313;SDS011;69628;47.516;18.828;2023-09-08T03:55:29;6.28;;;3.40;;
80313;SDS011;69628;47.516;18.828;2023-09-08T03:56:30;7.75;;;3.28;;
80313;SDS011;69628;47.516;18.828;2023-09-08T03:57:30;9.20;;;4.10;;
80313;SDS011;69628;47.516;18.828;2023-09-08T03:58:30;5.50;;;3.15;;
80313;SDS011;69628;47.516;18.828;2023-09-08T03:59:31;10.98;;;3.60;;
80313;SDS011;69628;47.516;18.828;2023-09-08T04:00:31;11.43;;;3.90;;
80313;SDS011;69628;47.516;18.828;2023-09-08T04:01:32;8.75;;;3.80;;
80313;SDS011;69628;47.516;18.828;2023-09-08T04:02:32;5.13;;;3.15;;
80313;SDS011;69628;47.516;18.828;2023-09-08T04:03:33;6.38;;;3.58;;
80313;SDS011;69628;47.516;18.828;2023-09-08T04:04:33;6.78;;;3.60;;
80313;SDS011;69628;47.516;18.828;2023-09-08T04:05:33;6.30;;;3.10;;
80313;SDS011;69628;47.516;18.828;2023-09-08T04:06:34;9.35;;;3.83;;
80313;SDS011;69628;47.516;18.828;2023-09-08T04:07:34;14.32;;;3.47;;
80313;SDS011;69628;47.516;18.828;2023-09-08T04:08:34;5.82;;;3.72;;
80313;SDS011;69628;47.516;18.828;2023-09-08T04:09:35;9.95;;;3.92;;
80313;SDS011;69628;47.516;18.828;2023-09-08T04:10:35;6.30;;;3.30;;
80313;SDS011;69628;47.516;18.828;2023-09-08T04:11:36;10.45;;;3.80;;
80313;SDS011;69628;47.516;18.828;2023-09-08T04:12:36;8.57;;;3.58;;
80313;SDS011;69628;47.516;18.828;2023-09-08T04:13:36;7.45;;;3.33;;
80313;SDS011;69628;47.516;18.828;2023-09-08T04:14:37;5.43;;;3.17;;
80313;SDS011;69628;47.516;18.828;2023-09-08T04:15:37;11.00;;;3.50;;
80313;SDS011;69628;47.516;18.828;2023-09-08T04:16:38;5.30;;;3.40;;
80313;SDS011;69628;47.516;18.828;2023-09-08T04:17:38;8.07;;;3.58;;
80313;SDS011;69628;47.516;18.828;2023-09-08T04:18:38;8.75;;;4.05;;
80313;SDS011;69628;47.516;18.828;2023-09-08T04:19:39;5.75;;;3.33;;
80313;SDS011;69628;47.516;18.828;2023-09-08T04:20:39;9.75;;;4.28;;
80313;SDS011;69628;47.516;18.828;2023-09-08T04:21:40;9.98;;;3.47;;
80313;SDS011;69628;47.516;18.828;2023-09-08T04:22:41;5.85;;;3.40;;
80313;SDS011;69628;47.516;18.828;2023-09-08T04:23:41;11.00;;;4.22;;
80313;SDS011;69628;47.516;18.828;2023-09-08T04:24:41;7.85;;;3.67;;
80313;SDS011;69628;47.516;18.828;2023-09-08T04:25:42;16.25;;;3.83;;
80313;SDS011;69628;47.516;18.828;2023-09-08T04:26:42;6.18;;;3.92;;
80313;SDS011;69628;47.516;18.828;2023-09-08T04:27:43;5.93;;;3.67;;
80313;SDS011;69628;47.516;18.828;2023-09-08T04:28:44;11.00;;;3.95;;
80313;SDS011;69628;47.516;18.828;2023-09-08T04:29:44;9.23;;;3.60;;
80313;SDS011;69628;47.516;18.828;2023-09-08T04:30:45;6.15;;;3.72;;
80313;SDS011;69628;47.516;18.828;2023-09-08T04:31:45;8.07;;;4.45;;
80313;SDS011;69628;47.516;18.828;2023-09-08T04:32:46;8.00;;;4.03;;
80313;SDS011;69628;47.516;18.828;2023-09-08T04:33:46;7.07;;;3.80;;
80313;SDS011;69628;47.516;18.828;2023-09-08T04:34:46;14.30;;;4.13;;
80313;SDS011;69628;47.516;18.828;2023-09-08T04:35:47;9.10;;;4.13;;
80313;SDS011;69628;47.516;18.828;2023-09-08T04:36:47;5.57;;;3.17;;
80313;SDS011;69628;47.516;18.828;2023-09-08T04:37:48;8.68;;;4.32;;
80313;SDS011;69628;47.516;18.828;2023-09-08T04:38:48;8.02;;;4.07;;
80313;SDS011;69628;47.516;18.828;2023-09-08T04:39:48;9.20;;;3.95;;
80313;SDS011;69628;47.516;18.828;2023-09-08T04:40:49;7.45;;;4.40;;
80313;SDS011;69628;47.516;18.828;2023-09-08T04:41:49;7.47;;;4.25;;
80313;SDS011;69628;47.516;18.828;2023-09-08T04:42:49;8.50;;;4.15;;
80313;SDS011;69628;47.516;18.828;2023-09-08T04:43:50;6.03;;;3.60;;
80313;SDS011;69628;47.516;18.828;2023-09-08T04:44:50;8.40;;;4.22;;
80313;SDS011;69628;47.516;18.828;2023-09-08T04:45:50;6.35;;;3.72;;
80313;SDS011;69628;47.516;18.828;2023-09-08T04:46:51;11.73;;;4.25;;
80313;SDS011;69628;47.516;18.828;2023-09-08T04:47:52;6.00;;;3.80;;
80313;SDS011;69628;47.516;18.828;2023-09-08T04:48:52;5.30;;;3.38;;
80313;SDS011;69628;47.516;18.828;2023-09-08T04:49:53;8.23;;;3.97;;
80313;SDS011;69628;47.516;18.828;2023-09-08T04:50:53;8.30;;;4.45;;
80313;SDS011;69628;47.516;18.828;2023-09-08T04:51:54;8.95;;;4.18;;
80313;SDS011;69628;47.516;18.828;2023-09-08T04:52:54;12.10;;;3.75;;
80313;SDS011;69628;47.516;18.828;2023-09-08T04:53:54;9.38;;;4.15;;
80313;SDS011;69628;47.516;18.828;2023-09-08T04:54:55;10.20;;;4.07;;
80313;SDS011;69628;47.516;18.828;2023-09-08T04:55:55;6.57;;;3.75;;
80313;SDS011;69628;47.516;18.828;2023-09-08T04:56:55;8.10;;;3.85;;
80313;SDS011;69628;47.516;18.828;2023-09-08T04:57:56;6.28;;;3.67;;
80313;SDS011;69628;47.516;18.828;2023-09-08T04:58:56;6.68;;;3.92;;
80313;SDS011;69628;47.516;18.828;2023-09-08T04:59:58;8.27;;;4.43;;
80313;SDS011;69628;47.516;18.828;2023-09-08T05:00:58;9.80;;;3.80;;
80313;SDS011;69628;47.516;18.828;2023-09-08T05:01:58;8.15;;;4.15;;
80313;SDS011;69628;47.516;18.828;2023-09-08T05:02:59;15.00;;;4.25;;
80313;SDS011;69628;47.516;18.828;2023-09-08T05:03:59;9.85;;;4.07;;
80313;SDS011;69628;47.516;18.828;2023-09-08T05:05:00;9.77;;;3.85;;
80313;SDS011;69628;47.516;18.828;2023-09-08T05:06:00;5.22;;;3.65;;
80313;SDS011;69628;47.516;18.828;2023-09-08T05:07:01;6.63;;;3.97;;
80313;SDS011;69628;47.516;18.828;2023-09-08T05:08:01;6.70;;;3.72;;
80313;SDS011;69628;47.516;18.828;2023-09-08T05:09:02;9.32;;;3.58;;
80313;SDS011;69628;47.516;18.828;2023-09-08T05:10:03;10.23;;;4.30;;
80313;SDS011;69628;47.516;18.828;2023-09-08T05:11:03;10.48;;;3.90;;
80313;SDS011;69628;47.516;18.828;2023-09-08T05:12:04;7.78;;;3.33;;
80313;SDS011;69628;47.516;18.828;2023-09-08T05:13:05;7.68;;;3.97;;
80313;SDS011;69628;47.516;18.828;2023-09-08T05:14:06;5.68;;;3.38;;
80313;SDS011;69628;47.516;18.828;2023-09-08T05:15:06;6.70;;;3.75;;
80313;SDS011;69628;47.516;18.828;2023-09-08T05:16:10;4.95;;;3.50;;
80313;SDS011;69628;47.516;18.828;2023-09-08T05:17:11;8.15;;;3.72;;
80313;SDS011;69628;47.516;18.828;2023-09-08T05:18:12;9.65;;;4.30;;
80313;SDS011;69628;47.516;18.828;2023-09-08T05:19:12;12.50;;;3.92;;
80313;SDS011;69628;47.516;18.828;2023-09-08T05:20:13;9.30;;;4.05;;
80313;SDS011;69628;47.516;18.828;2023-09-08T05:21:13;9.75;;;3.63;;
80313;SDS011;69628;47.516;18.828;2023-09-08T05:22:14;6.45;;;3.70;;
80313;SDS011;69628;47.516;18.828;2023-09-08T05:23:14;7.70;;;4.10;;
80313;SDS011;69628;47.516;18.828;2023-09-08T05:24:14;7.18;;;3.67;;
80313;SDS011;69628;47.516;18.828;2023-09-08T05:25:15;7.18;;;3.75;;
80313;SDS011;69628;47.516;18.828;2023-09-08T05:26:15;7.10;;;3.85;;
80313;SDS011;69628;47.516;18.828;2023-09-08T05:27:16;8.80;;;3.95;;
80313;SDS011;69628;47.516;18.828;2023-09-08T05:28:16;10.35;;;3.92;;
80313;SDS011;69628;47.516;18.828;2023-09-08T05:29:16;9.25;;;4.38;;
80313;SDS011;69628;47.516;18.828;2023-09-08T05:30:17;10.90;;;3.97;;
80313;SDS011;69628;47.516;18.828;2023-09-08T05:31:17;7.35;;;4.13;;
80313;SDS011;69628;47.516;18.828;2023-09-08T05:32:18;8.88;;;3.83;;
80313;SDS011;69628;47.516;18.828;2023-09-08T05:33:18;9.32;;;4.40;;
80313;SDS011;69628;47.516;18.828;2023-09-08T05:34:19;6.05;;;3.47;;
80313;SDS011;69628;47.516;18.828;2023-09-08T05:35:19;10.60;;;3.75;;
80313;SDS011;69628;47.516;18.828;2023-09-08T05:36:19;7.40;;;4.10;;
80313;SDS011;69628;47.516;18.828;2023-09-08T05:37:20;9.38;;;4.40;;
80313;SDS011;69628;47.516;18.828;2023-09-08T05:38:20;5.88;;;3.25;;
80313;SDS011;69628;47.516;18.828;2023-09-08T05:39:20;6.65;;;3.53;;
80313;SDS011;69628;47.516;18.828;2023-09-08T05:40:21;8.07;;;3.80;;
80313;SDS011;69628;47.516;18.828;2023-09-08T05:41:24;10.77;;;4.47;;
80313;SDS011;69628;47.516;18.828;2023-09-08T05:42:24;7.13;;;3.95;;
80313;SDS011;69628;47.516;18.828;2023-09-08T05:43:24;9.20;;;3.65;;
80313;SDS011;69628;47.516;18.828;2023-09-08T05:44:25;8.05;;;3.60;;
80313;SDS011;69628;47.516;18.828;2023-09-08T05:45:25;10.65;;;3.90;;
80313;SDS011;69628;47.516;18.828;2023-09-08T05:46:26;7.00;;;3.63;;
80313;SDS011;69628;47.516;18.828;2023-09-08T05:47:26;8.48;;;4.25;;
80313;SDS011;69628;47.516;18.828;2023-09-08T05:48:27;6.28;;;3.47;;
80313;SDS011;69628;47.516;18.828;2023-09-08T05:49:27;15.30;;;3.85;;
80313;SDS011;69628;47.516;18.828;2023-09-08T05:50:27;7.13;;;3.60;;
80313;SDS011;69628;47.516;18.828;2023-09-08T05:51:28;8.13;;;4.20;;
80313;SDS011;69628;47.516;18.828;2023-09-08T05:52:28;6.93;;;3.92;;
80313;SDS011;69628;47.516;18.828;2023-09-08T05:53:29;7.38;;;3.67;;
80313;SDS011;69628;47.516;18.828;2023-09-08T05:54:29;6.53;;;3.60;;
80313;SDS011;69628;47.516;18.828;2023-09-08T05:55:30;5.60;;;3.70;;
80313;SDS011;69628;47.516;18.828;2023-09-08T05:56:31;6.28;;;3.78;;
80313;SDS011;69628;47.516;18.828;2023-09-08T05:57:32;12.88;;;3.80;;
80313;SDS011;69628;47.516;18.828;2023-09-08T05:58:34;5.75;;;3.55;;
80313;SDS011;69628;47.516;18.828;2023-09-08T05:59:35;7.25;;;3.75;;
80313;SDS011;69628;47.516;18.828;2023-09-08T06:00:35;6.93;;;3.63;;
80313;SDS011;69628;47.516;18.828;2023-09-08T06:01:35;16.42;;;4.10;;
80313;SDS011;69628;47.516;18.828;2023-09-08T06:02:36;8.20;;;3.55;;
80313;SDS011;69628;47.516;18.828;2023-09-08T06:03:36;9.45;;;3.20;;